Time;durP1;ratioP1;P1;durP2;ratioP2;P2;SDS_P1;SDS_P2;PMS_P1;PMS_P2;Temp;Humidity;BMP_temperature;BMP_pressure;BME280_temperature;BME280_humidity;BME280_pressure;Samples;Min_cycle;Max_cycle;Signal;HPM_P1;HPM_P2
2022/12/26 00:00:26;;;;;;;;;;;18.70;48.60;;;;;;4960483;28;19954;-53
2022/12/26 00:02:52;;;;;;;;;;;18.70;48.70;;;;;;4952972;29;19915;-51
2022/12/26 00:05:17;;;;;;;;;;;18.60;48.60;;;;;;4951047;28;20327;-51
2022/12/26 00:07:43;;;;;;;;;;;18.60;48.70;;;;;;4958084;28;19919;-51
2022/12/26 00:10:08;;;;;;;;;;;18.60;48.80;;;;;;4953290;28;19945;-51
2022/12/26 00:12:34;;;;;;;;;;;18.50;48.80;;;;;;4952440;28;19915;-51
2022/12/26 00:14:59;;;;;;;;;;;18.50;48.90;;;;;;4950072;28;20287;-51
2022/12/26 00:17:25;;;;;;;;;;;18.50;48.90;;;;;;4957216;28;20005;-51
2022/12/26 00:19:50;;;;;;;;;;;18.50;48.90;;;;;;4953452;28;20341;-51
2022/12/26 00:22:17;;;;;;;;;;;18.40;49.00;;;;;;4953217;28;20396;-50
2022/12/26 00:24:42;;;;;;;;;;;18.40;49.00;;;;;;4953584;28;20001;-50
2022/12/26 00:27:08;;;;;;;;;;;18.40;49.00;;;;;;4952899;28;19958;-51
2022/12/26 00:29:33;;;;;;;;;;;18.30;48.90;;;;;;4959013;28;19918;-51
2022/12/26 00:31:58;;;;;;;;;;;18.30;49.20;;;;;;4953266;29;19915;-51
2022/12/26 00:34:24;;;;;;;;;;;18.30;49.20;;;;;;4953187;28;19925;-51
2022/12/26 00:36:50;;;;;;;;;;;18.20;49.20;;;;;;4953645;28;19914;-51
2022/12/26 00:39:16;;;;;;;;;;;18.20;49.30;;;;;;4952652;29;20009;-51
2022/12/26 00:41:41;;;;;;;;;;;18.20;49.30;;;;;;4955815;28;19911;-51
2022/12/26 00:44:07;;;;;;;;;;;18.20;49.30;;;;;;4952367;29;19925;-50
2022/12/26 00:46:32;;;;;;;;;;;18.10;49.30;;;;;;4953077;29;20005;-50
2022/12/26 00:48:58;;;;;;;;;;;18.10;49.40;;;;;;4953405;28;19917;-51
2022/12/26 00:51:23;;;;;;;;;;;18.10;49.50;;;;;;4969399;28;19978;-51
2022/12/26 00:53:49;;;;;;;;;;;18.00;49.40;;;;;;4965154;28;19915;-50
2022/12/26 00:56:14;;;;;;;;;;;18.00;49.50;;;;;;4952515;28;20329;-51
2022/12/26 00:58:40;;;;;;;;;;;18.00;49.60;;;;;;4953402;28;19919;-52
2022/12/26 01:01:16;;;;;;;;;;;18.00;49.70;;;;;;4952705;28;20393;-51
2022/12/26 01:03:42;;;;;;;;;;;17.90;49.60;;;;;;4952698;28;19914;-51
2022/12/26 01:06:07;;;;;;;;;;;17.90;49.60;;;;;;4952037;29;20320;-51
2022/12/26 01:08:33;;;;;;;;;;;17.90;49.90;;;;;;4952786;28;20001;-51
2022/12/26 01:11:01;;;;;;;;;;;17.90;49.70;;;;;;4952743;29;20002;-50
2022/12/26 01:13:26;;;;;;;;;;;17.80;49.70;;;;;;4952128;29;19910;-53
2022/12/26 01:15:52;;;;;;;;;;;17.80;49.80;;;;;;4957865;28;19986;-52
2022/12/26 01:18:17;;;;;;;;;;;17.80;49.90;;;;;;4959500;28;20007;-52
2022/12/26 01:20:43;;;;;;;;;;;17.80;49.90;;;;;;4952307;28;19914;-52
2022/12/26 01:23:08;;;;;;;;;;;17.70;49.90;;;;;;4952165;29;19910;-51
2022/12/26 01:25:34;;;;;;;;;;;17.80;50.10;;;;;;4944759;29;19926;-51
2022/12/26 01:27:59;;;;;;;;;;;17.70;50.10;;;;;;4951957;29;19941;-51
2022/12/26 01:30:25;;;;;;;;;;;17.70;50.10;;;;;;4952526;28;19918;-51
2022/12/26 01:32:50;;;;;;;;;;;17.70;50.20;;;;;;4957505;28;19918;-51
2022/12/26 01:35:15;;;;;;;;;;;17.60;50.10;;;;;;4952845;28;19918;-51
2022/12/26 01:37:41;;;;;;;;;;;17.60;50.20;;;;;;4951835;28;19910;-51
2022/12/26 01:40:07;;;;;;;;;;;17.60;50.30;;;;;;4951507;29;19953;-51
2022/12/26 01:42:36;;;;;;;;;;;17.60;50.30;;;;;;4951766;29;19961;-51
2022/12/26 01:45:04;;;;;;;;;;;17.60;50.40;;;;;;4952003;28;20430;-52
2022/12/26 01:47:34;;;;;;;;;;;17.60;50.30;;;;;;4952119;28;19933;-51
2022/12/26 01:49:59;;;;;;;;;;;17.50;50.30;;;;;;4950343;28;19980;-52
2022/12/26 01:52:27;;;;;;;;;;;17.50;50.40;;;;;;4955001;28;20461;-51
2022/12/26 01:54:53;;;;;;;;;;;17.50;50.40;;;;;;4934177;28;19921;-51
2022/12/26 01:57:20;;;;;;;;;;;17.50;50.40;;;;;;4931715;29;19911;-50
2022/12/26 01:59:45;;;;;;;;;;;17.40;50.40;;;;;;4946438;28;19919;-50
2022/12/26 02:02:11;;;;;;;;;;;17.40;50.50;;;;;;4951738;29;20001;-50
2022/12/26 02:07:21;;;;;;;;;;;17.40;50.60;;;;;;4960889;28;19984;-52
2022/12/26 02:09:47;;;;;;;;;;;17.40;50.50;;;;;;4953982;28;19950;-52
2022/12/26 02:12:15;;;;;;;;;;;17.40;50.50;;;;;;4951864;28;20017;-50
2022/12/26 02:14:40;;;;;;;;;;;17.50;50.40;;;;;;4950694;29;20316;-51
2022/12/26 02:17:06;;;;;;;;;;;17.50;50.30;;;;;;4951126;28;19926;-51
2022/12/26 02:19:35;;;;;;;;;;;17.70;50.00;;;;;;4951405;29;19960;-51
2022/12/26 02:22:10;;;;;;;;;;;17.90;49.70;;;;;;4951854;28;19954;-51
2022/12/26 02:25:11;;;;;;;;;;;18.10;49.40;;;;;;4936974;28;19919;-51
2022/12/26 02:27:55;;;;;;;;;;;18.30;48.80;;;;;;4979962;28;19918;-52
2022/12/26 02:30:35;;;;;;;;;;;18.70;48.10;;;;;;4953916;28;19976;-52
2022/12/26 02:33:09;;;;;;;;;;;19.30;47.10;;;;;;4951372;28;20270;-52
2022/12/26 02:35:44;;;;;;;;;;;19.70;46.00;;;;;;4951116;29;20309;-52
2022/12/26 02:38:14;;;;;;;;;;;20.20;45.10;;;;;;4951331;29;19929;-52
2022/12/26 02:40:41;;;;;;;;;;;20.70;44.30;;;;;;4934736;28;19953;-52
2022/12/26 02:43:10;;;;;;;;;;;21.00;43.70;;;;;;4950426;28;19915;-52
2022/12/26 02:48:54;;;;;;;;;;;21.50;42.70;;;;;;4936460;29;19975;-52
2022/12/26 03:13:41;;;;;;;;;;;21.00;43.70;;;;;;4944035;28;19933;-51
2022/12/26 03:18:53;;;;;;;;;;;21.30;43.20;;;;;;4950444;29;19936;-51
2022/12/26 03:21:19;;;;;;;;;;;21.30;43.20;;;;;;4950320;29;19922;-50
2022/12/26 03:23:45;;;;;;;;;;;21.50;43.20;;;;;;4948960;28;19920;-51
2022/12/26 03:26:39;;;;;;;;;;;21.50;42.80;;;;;;5015368;28;19975;-50
2022/12/26 03:31:53;;;;;;;;;;;21.50;42.80;;;;;;4970944;28;20010;-52
2022/12/26 03:34:18;;;;;;;;;;;21.60;42.90;;;;;;4949751;28;20045;-52
2022/12/26 03:36:54;;;;;;;;;;;21.60;42.90;;;;;;4948707;28;19923;-53
2022/12/26 04:20:00;;;;;;;;;;;21.60;43.20;;;;;;4952771;28;20056;-52
2022/12/26 04:44:41;;;;;;;;;;;21.90;42.60;;;;;;4952627;28;20398;-52
2022/12/26 04:47:07;;;;;;;;;;;21.90;42.40;;;;;;4952038;28;19915;-52
2022/12/26 04:52:24;;;;;;;;;;;22.00;42.50;;;;;;4985281;28;19921;-51
2022/12/26 04:54:49;;;;;;;;;;;22.00;42.30;;;;;;4951400;28;20414;-51
2022/12/26 04:57:15;;;;;;;;;;;22.10;42.40;;;;;;4951515;28;20394;-51
2022/12/26 04:59:40;;;;;;;;;;;21.90;42.50;;;;;;4950258;28;20294;-52
2022/12/26 05:10:24;;;;;;;;;;;21.70;43.10;;;;;;4948365;29;20006;-51
2022/12/26 05:12:49;;;;;;;;;;;21.80;42.90;;;;;;4951450;28;20009;-51
2022/12/26 05:15:15;;;;;;;;;;;22.00;42.80;;;;;;4969287;28;20004;-51
2022/12/26 05:28:52;;;;;;;;;;;21.90;42.80;;;;;;4951006;28;20347;-52
2022/12/26 05:31:17;;;;;;;;;;;21.90;42.70;;;;;;4960703;28;19914;-52
2022/12/26 05:36:28;;;;;;;;;;;22.00;42.60;;;;;;4954291;28;19980;-51
2022/12/26 05:38:55;;;;;;;;;;;22.00;42.60;;;;;;4948804;28;19964;-52
2022/12/26 05:41:20;;;;;;;;;;;22.00;42.70;;;;;;4950752;28;19984;-52
2022/12/26 05:43:46;;;;;;;;;;;22.10;42.60;;;;;;4951719;28;19993;-52
2022/12/26 05:46:11;;;;;;;;;;;22.10;42.70;;;;;;4952295;28;20355;-51
2022/12/26 05:48:37;;;;;;;;;;;22.10;42.60;;;;;;4951394;28;19922;-51
2022/12/26 05:51:02;;;;;;;;;;;22.20;42.50;;;;;;4954031;28;19915;-51
2022/12/26 05:53:28;;;;;;;;;;;22.20;42.50;;;;;;5015316;28;19975;-51
2022/12/26 05:55:53;;;;;;;;;;;22.00;42.90;;;;;;4951409;28;19923;-51
2022/12/26 05:58:19;;;;;;;;;;;22.00;42.90;;;;;;4950372;28;20299;-51
2022/12/26 06:00:44;;;;;;;;;;;21.80;42.90;;;;;;4950922;28;19918;-51
2022/12/26 06:03:10;;;;;;;;;;;21.90;43.00;;;;;;4950637;28;20019;-50
2022/12/26 06:05:35;;;;;;;;;;;21.90;42.90;;;;;;4951423;29;19992;-52
2022/12/26 06:08:01;;;;;;;;;;;21.90;42.90;;;;;;4950524;28;19922;-51
2022/12/26 06:10:28;;;;;;;;;;;22.10;42.70;;;;;;4951412;28;20290;-53
2022/12/26 06:12:54;;;;;;;;;;;22.20;42.70;;;;;;4951562;28;20343;-51
2022/12/26 06:15:19;;;;;;;;;;;22.10;42.70;;;;;;4947766;28;19958;-52
2022/12/26 06:17:45;;;;;;;;;;;22.00;42.70;;;;;;4949557;28;19923;-51
2022/12/26 06:20:10;;;;;;;;;;;22.10;42.60;;;;;;4950851;28;19953;-51
2022/12/26 06:22:36;;;;;;;;;;;22.10;42.70;;;;;;4952268;28;19918;-52
2022/12/26 06:25:01;;;;;;;;;;;22.10;42.80;;;;;;4945180;28;19968;-51
2022/12/26 06:27:26;;;;;;;;;;;22.10;42.80;;;;;;4950388;28;19968;-51
2022/12/26 06:29:52;;;;;;;;;;;22.00;42.70;;;;;;4949117;28;19922;-51
2022/12/26 06:32:17;;;;;;;;;;;21.90;43.00;;;;;;4945419;28;20441;-51
2022/12/26 06:34:43;;;;;;;;;;;22.00;42.90;;;;;;4945421;28;20313;-52
2022/12/26 06:37:08;;;;;;;;;;;22.00;43.00;;;;;;4951766;29;19929;-51
2022/12/26 06:39:34;;;;;;;;;;;21.90;42.90;;;;;;4950815;28;20037;-51
2022/12/26 06:41:59;;;;;;;;;;;22.10;42.90;;;;;;4949102;28;19914;-51
2022/12/26 06:44:25;;;;;;;;;;;22.10;42.70;;;;;;4949853;28;19918;-52
2022/12/26 06:46:50;;;;;;;;;;;22.20;42.40;;;;;;4951712;28;19979;-52
2022/12/26 06:49:15;;;;;;;;;;;22.20;42.70;;;;;;4949583;28;19922;-53
2022/12/26 06:51:43;;;;;;;;;;;22.20;42.70;;;;;;4980038;28;20447;-51
2022/12/26 06:54:09;;;;;;;;;;;22.10;42.50;;;;;;4982137;28;19926;-52
2022/12/26 06:56:34;;;;;;;;;;;22.20;42.40;;;;;;4949620;28;19926;-51
2022/12/26 06:59:01;;;;;;;;;;;22.10;42.60;;;;;;4950496;28;19981;-51
2022/12/26 07:01:27;;;;;;;;;;;22.10;42.80;;;;;;4951328;28;19928;-51
2022/12/26 07:03:52;;;;;;;;;;;22.10;42.80;;;;;;4956167;28;20298;-51
2022/12/26 07:06:22;;;;;;;;;;;22.00;42.80;;;;;;4949796;28;19926;-51
2022/12/26 07:08:47;;;;;;;;;;;22.00;42.90;;;;;;4955214;28;20329;-50
2022/12/26 07:11:14;;;;;;;;;;;22.00;43.10;;;;;;4950193;29;19918;-51
2022/12/26 07:13:40;;;;;;;;;;;21.90;42.90;;;;;;4936777;28;19918;-51
2022/12/26 07:16:05;;;;;;;;;;;21.90;43.00;;;;;;4950330;28;19922;-51
2022/12/26 07:18:30;;;;;;;;;;;22.00;43.00;;;;;;4950712;28;19915;-51
2022/12/26 07:20:56;;;;;;;;;;;22.00;43.00;;;;;;4949134;28;19918;-52
2022/12/26 07:23:21;;;;;;;;;;;22.00;43.00;;;;;;4949904;28;20466;-52
2022/12/26 07:25:47;;;;;;;;;;;21.90;43.00;;;;;;4950286;28;19992;-52
2022/12/26 07:28:13;;;;;;;;;;;22.00;42.90;;;;;;4948468;28;19922;-52
2022/12/26 07:30:39;;;;;;;;;;;22.10;42.80;;;;;;4951254;28;20006;-52
2022/12/26 07:33:04;;;;;;;;;;;22.10;42.80;;;;;;4999463;28;20021;-52
2022/12/26 07:35:30;;;;;;;;;;;22.20;42.80;;;;;;4949662;28;19919;-52
2022/12/26 07:37:55;;;;;;;;;;;22.20;42.40;;;;;;4953234;28;19922;-52
2022/12/26 07:40:20;;;;;;;;;;;22.30;42.40;;;;;;4953664;29;19922;-51
2022/12/26 07:42:46;;;;;;;;;;;22.20;42.50;;;;;;4953107;28;19914;-52
2022/12/26 07:45:11;;;;;;;;;;;22.30;42.40;;;;;;4953424;28;19914;-51
2022/12/26 07:47:37;;;;;;;;;;;22.30;42.50;;;;;;4953877;28;19915;-52
2022/12/26 07:50:03;;;;;;;;;;;22.20;42.60;;;;;;4951708;28;19919;-51
2022/12/26 07:52:28;;;;;;;;;;;22.30;42.60;;;;;;5006558;28;19972;-51
2022/12/26 07:54:53;;;;;;;;;;;22.30;42.50;;;;;;4953134;28;19930;-52
2022/12/26 07:57:19;;;;;;;;;;;22.20;42.50;;;;;;4953962;28;19972;-52
2022/12/26 07:59:44;;;;;;;;;;;22.10;42.80;;;;;;4950894;28;19964;-52
2022/12/26 08:02:10;;;;;;;;;;;22.10;42.90;;;;;;4964920;28;19914;-51
2022/12/26 08:04:35;;;;;;;;;;;22.00;43.10;;;;;;4952254;28;19950;-52
2022/12/26 08:07:01;;;;;;;;;;;22.00;43.20;;;;;;4953585;29;19946;-52
2022/12/26 08:09:26;;;;;;;;;;;22.10;43.00;;;;;;4952507;28;19918;-52
2022/12/26 08:11:52;;;;;;;;;;;22.10;42.90;;;;;;4953902;28;19976;-52
2022/12/26 08:14:17;;;;;;;;;;;22.10;42.90;;;;;;4952354;28;19918;-51
2022/12/26 08:16:43;;;;;;;;;;;22.20;42.90;;;;;;4952346;28;19958;-51
2022/12/26 08:19:09;;;;;;;;;;;22.20;42.80;;;;;;4952694;29;19925;-51
2022/12/26 08:21:34;;;;;;;;;;;22.20;42.90;;;;;;4952609;28;19923;-51
2022/12/26 08:24:00;;;;;;;;;;;22.20;42.70;;;;;;4952344;28;19915;-51
2022/12/26 08:26:25;;;;;;;;;;;22.30;42.60;;;;;;4952311;28;19915;-51
2022/12/26 08:28:50;;;;;;;;;;;22.30;42.60;;;;;;4954769;28;19914;-50
2022/12/26 08:31:16;;;;;;;;;;;22.30;42.50;;;;;;4952549;28;19915;-51
2022/12/26 08:33:41;;;;;;;;;;;22.30;42.70;;;;;;4951221;28;19914;-51
2022/12/26 08:36:08;;;;;;;;;;;22.10;43.00;;;;;;4952137;28;20031;-51
2022/12/26 08:38:33;;;;;;;;;;;22.10;43.10;;;;;;4952632;28;21094;-51
2022/12/26 08:40:59;;;;;;;;;;;22.10;43.10;;;;;;4950889;28;19915;-52
2022/12/26 08:43:24;;;;;;;;;;;22.10;43.20;;;;;;4951143;28;19918;-51
2022/12/26 08:45:59;;;;;;;;;;;22.10;43.10;;;;;;4952290;28;19914;-52
2022/12/26 08:48:25;;;;;;;;;;;22.10;43.10;;;;;;4951781;28;19925;-52
2022/12/26 08:50:54;;;;;;;;;;;22.00;43.40;;;;;;4952170;28;19914;-51
2022/12/26 08:53:20;;;;;;;;;;;21.90;43.50;;;;;;4955283;28;19921;-51
2022/12/26 08:55:45;;;;;;;;;;;21.80;43.50;;;;;;4952299;28;20294;-53
2022/12/26 08:58:10;;;;;;;;;;;21.70;43.90;;;;;;4951089;28;20316;-51
2022/12/26 09:00:36;;;;;;;;;;;21.70;44.00;;;;;;4951048;28;20289;-52
2022/12/26 09:03:01;;;;;;;;;;;21.80;43.70;;;;;;4952218;28;19961;-52
2022/12/26 09:05:27;;;;;;;;;;;21.80;43.60;;;;;;4945523;28;19922;-52
2022/12/26 09:07:52;;;;;;;;;;;21.90;43.20;;;;;;4951212;28;20009;-52
2022/12/26 09:10:18;;;;;;;;;;;22.00;43.20;;;;;;4952536;29;19962;-51
2022/12/26 09:12:43;;;;;;;;;;;22.00;43.20;;;;;;4958399;28;19918;-50
2022/12/26 09:15:09;;;;;;;;;;;22.00;43.10;;;;;;4952964;29;19915;-52
2022/12/26 09:17:34;;;;;;;;;;;22.20;43.00;;;;;;4952918;28;19941;-52
2022/12/26 09:20:00;;;;;;;;;;;22.20;42.70;;;;;;4952645;28;19917;-52
2022/12/26 09:25:09;;;;;;;;;;;22.20;42.70;;;;;;4952292;29;20290;-51
2022/12/26 09:27:34;;;;;;;;;;;22.30;42.50;;;;;;4952856;29;20009;-51
2022/12/26 09:30:00;;;;;;;;;;;22.40;42.60;;;;;;4953953;28;19922;-51
2022/12/26 09:32:25;;;;;;;;;;;22.40;42.50;;;;;;4952688;29;19915;-52
2022/12/26 09:34:51;;;;;;;;;;;22.30;42.60;;;;;;4952303;29;20527;-52
2022/12/26 09:37:16;;;;;;;;;;;22.40;42.50;;;;;;4951334;28;19967;-52
2022/12/26 09:39:42;;;;;;;;;;;22.40;42.60;;;;;;4952191;29;19911;-51
2022/12/26 09:42:13;;;;;;;;;;;22.30;42.50;;;;;;4952275;29;19927;-52
2022/12/26 09:44:51;;;;;;;;;;;22.40;42.70;;;;;;4934235;28;20374;-52
2022/12/26 09:47:16;;;;;;;;;;;22.30;42.60;;;;;;4952296;28;20052;-51
2022/12/26 09:49:54;;;;;;;;;;;22.30;42.60;;;;;;4952125;29;20354;-51
2022/12/26 09:52:33;;;;;;;;;;;22.40;42.50;;;;;;4979160;28;19919;-52
2022/12/26 09:54:59;;;;;;;;;;;22.40;42.50;;;;;;4951539;28;20365;-51
2022/12/26 09:57:45;;;;;;;;;;;22.30;43.00;;;;;;4951838;28;20021;-51
2022/12/26 10:00:15;;;;;;;;;;;22.30;42.80;;;;;;4950906;28;19921;-51
2022/12/26 10:02:40;;;;;;;;;;;22.20;43.00;;;;;;4952809;28;19911;-52
2022/12/26 10:05:06;;;;;;;;;;;22.20;43.10;;;;;;4945477;28;20394;-51
2022/12/26 10:07:41;;;;;;;;;;;22.20;43.00;;;;;;4961786;28;20340;-51
2022/12/26 10:10:13;;;;;;;;;;;22.20;43.00;;;;;;4949763;28;19915;-51
2022/12/26 10:12:38;;;;;;;;;;;22.10;42.90;;;;;;4952146;28;19914;-51
2022/12/26 10:15:19;;;;;;;;;;;22.00;43.30;;;;;;4951215;29;19919;-53
2022/12/26 10:17:56;;;;;;;;;;;21.90;43.40;;;;;;4952052;29;19914;-51
2022/12/26 10:20:27;;;;;;;;;;;21.80;43.70;;;;;;4952192;28;19963;-52
2022/12/26 10:23:05;;;;;;;;;;;21.90;43.70;;;;;;4950891;28;19946;-52
2022/12/26 10:25:37;;;;;;;;;;;21.80;43.50;;;;;;4950851;29;19973;-53
2022/12/26 10:28:02;;;;;;;;;;;21.90;43.40;;;;;;4948334;28;20429;-51
2022/12/26 10:30:30;;;;;;;;;;;22.00;43.40;;;;;;4936417;28;20008;-50
2022/12/26 10:32:57;;;;;;;;;;;22.10;43.20;;;;;;4950846;28;19961;-51
2022/12/26 10:35:27;;;;;;;;;;;22.10;43.20;;;;;;4951568;28;19921;-52
2022/12/26 10:37:53;;;;;;;;;;;22.20;42.90;;;;;;4949307;28;19962;-51
2022/12/26 10:40:19;;;;;;;;;;;22.20;43.00;;;;;;4933973;29;19914;-51
2022/12/26 10:42:45;;;;;;;;;;;22.20;43.20;;;;;;4933369;29;19924;-51
2022/12/26 10:45:15;;;;;;;;;;;22.10;43.40;;;;;;4949982;29;20009;-51
2022/12/26 10:47:40;;;;;;;;;;;22.00;43.40;;;;;;4934522;28;19915;-51
2022/12/26 10:50:08;;;;;;;;;;;22.00;43.70;;;;;;4950247;28;20285;-51
2022/12/26 10:52:35;;;;;;;;;;;21.90;43.70;;;;;;5015851;28;19936;-51
2022/12/26 10:55:01;;;;;;;;;;;21.80;43.80;;;;;;4954536;28;20005;-51
2022/12/26 10:57:28;;;;;;;;;;;22.00;43.60;;;;;;4951222;29;20009;-52
2022/12/26 10:59:53;;;;;;;;;;;22.20;43.90;;;;;;4949937;28;19945;-51
2022/12/26 11:02:23;;;;;;;;;;;22.20;43.10;;;;;;4951346;28;20410;-51
2022/12/26 11:05:01;;;;;;;;;;;22.20;43.10;;;;;;4950957;29;19960;-51
2022/12/26 11:07:28;;;;;;;;;;;22.30;43.00;;;;;;4951423;28;19918;-51
2022/12/26 11:09:54;;;;;;;;;;;22.20;42.90;;;;;;4950490;28;20017;-52
2022/12/26 11:12:22;;;;;;;;;;;22.20;43.00;;;;;;4952924;28;20028;-50
2022/12/26 11:14:48;;;;;;;;;;;22.30;43.10;;;;;;4936889;28;20397;-51
2022/12/26 11:17:22;;;;;;;;;;;22.20;43.10;;;;;;4933805;29;19923;-52
2022/12/26 11:19:48;;;;;;;;;;;22.20;43.30;;;;;;4937226;28;19923;-52
2022/12/26 11:22:13;;;;;;;;;;;22.30;43.00;;;;;;4936670;29;19925;-51
2022/12/26 11:24:39;;;;;;;;;;;22.20;43.00;;;;;;4953507;28;19921;-52
2022/12/26 11:27:17;;;;;;;;;;;22.30;43.00;;;;;;4936723;29;20484;-52
2022/12/26 11:29:43;;;;;;;;;;;22.40;42.90;;;;;;4935069;28;19998;-51
2022/12/26 11:32:12;;;;;;;;;;;22.40;42.90;;;;;;4952768;29;20341;-51
2022/12/26 11:34:44;;;;;;;;;;;22.40;42.70;;;;;;4936745;29;19921;-51
2022/12/26 11:37:23;;;;;;;;;;;22.40;42.80;;;;;;4954435;28;20036;-53
2022/12/26 11:39:49;;;;;;;;;;;22.50;42.80;;;;;;4951876;28;19918;-53
2022/12/26 11:42:17;;;;;;;;;;;22.50;42.80;;;;;;4952920;28;19972;-53
2022/12/26 11:44:44;;;;;;;;;;;22.40;42.80;;;;;;4937337;28;19950;-52
2022/12/26 11:47:10;;;;;;;;;;;22.30;42.90;;;;;;4948293;28;20006;-52
2022/12/26 11:49:40;;;;;;;;;;;22.40;43.00;;;;;;4932452;28;19924;-52
2022/12/26 11:52:24;;;;;;;;;;;22.30;43.10;;;;;;4956365;28;19923;-52
2022/12/26 11:54:49;;;;;;;;;;;22.20;43.40;;;;;;4949764;28;20286;-52
2022/12/26 11:57:16;;;;;;;;;;;22.20;43.40;;;;;;4952908;29;19924;-51
2022/12/26 11:59:42;;;;;;;;;;;22.10;43.60;;;;;;4952219;28;19914;-52
2022/12/26 12:02:18;;;;;;;;;;;22.10;43.70;;;;;;4952033;28;19922;-50
2022/12/26 12:04:44;;;;;;;;;;;22.20;43.50;;;;;;4966296;28;19913;-50
2022/12/26 12:07:22;;;;;;;;;;;22.10;43.80;;;;;;4949568;28;20017;-51
2022/12/26 12:09:50;;;;;;;;;;;22.10;43.60;;;;;;4949256;28;20337;-52
2022/12/26 12:12:24;;;;;;;;;;;22.10;43.80;;;;;;4948959;28;20323;-52
2022/12/26 12:14:59;;;;;;;;;;;22.00;43.90;;;;;;4945430;29;19926;-52
2022/12/26 12:17:43;;;;;;;;;;;22.00;43.80;;;;;;4950534;28;19928;-51
2022/12/26 12:20:11;;;;;;;;;;;21.80;43.90;;;;;;4953340;29;19923;-52
2022/12/26 12:22:38;;;;;;;;;;;21.80;44.00;;;;;;4953039;28;19972;-51
2022/12/26 12:25:11;;;;;;;;;;;21.70;44.00;;;;;;4953382;28;19998;-52
2022/12/26 12:27:39;;;;;;;;;;;21.70;44.10;;;;;;4941003;28;20378;-50
2022/12/26 12:30:09;;;;;;;;;;;21.50;44.40;;;;;;4953069;29;19917;-51
2022/12/26 12:32:54;;;;;;;;;;;21.50;44.60;;;;;;4936289;28;19915;-52
2022/12/26 12:35:19;;;;;;;;;;;21.70;44.20;;;;;;4953120;29;20325;-52
2022/12/26 12:38:08;;;;;;;;;;;22.00;43.80;;;;;;4953208;29;19914;-52
2022/12/26 12:40:33;;;;;;;;;;;22.20;43.30;;;;;;4957347;28;19918;-52
2022/12/26 12:42:59;;;;;;;;;;;22.30;43.20;;;;;;4952304;29;19915;-52
2022/12/26 12:45:25;;;;;;;;;;;22.30;43.20;;;;;;4953196;29;19914;-51
2022/12/26 12:47:57;;;;;;;;;;;22.30;43.10;;;;;;4952999;28;19915;-51
2022/12/26 12:50:26;;;;;;;;;;;22.40;43.10;;;;;;4965246;28;20005;-51
2022/12/26 12:53:04;;;;;;;;;;;22.50;42.60;;;;;;4962492;28;19922;-52
2022/12/26 12:55:32;;;;;;;;;;;22.50;42.80;;;;;;4951970;29;20294;-52
2022/12/26 12:58:04;;;;;;;;;;;22.50;42.70;;;;;;4951066;28;19915;-52
2022/12/26 13:00:47;;;;;;;;;;;22.50;42.70;;;;;;4953209;28;19964;-52
2022/12/26 13:03:19;;;;;;;;;;;22.50;42.90;;;;;;4952660;28;19915;-51
2022/12/26 13:05:46;;;;;;;;;;;22.30;43.10;;;;;;4952689;29;19930;-51
2022/12/26 13:08:11;;;;;;;;;;;22.30;43.30;;;;;;4952996;28;20340;-52
2022/12/26 13:10:38;;;;;;;;;;;22.20;43.30;;;;;;4952444;29;19914;-51
2022/12/26 13:13:19;;;;;;;;;;;22.10;43.50;;;;;;4936468;28;19914;-54
2022/12/26 13:15:45;;;;;;;;;;;22.10;43.60;;;;;;4940090;28;19979;-52
2022/12/26 13:18:15;;;;;;;;;;;22.00;43.80;;;;;;4952460;28;20013;-52
2022/12/26 13:20:44;;;;;;;;;;;21.80;44.00;;;;;;4951430;28;20298;-52
2022/12/26 13:26:08;;;;;;;;;;;21.80;44.10;;;;;;4951520;28;20254;-52
2022/12/26 13:28:36;;;;;;;;;;;21.70;44.00;;;;;;4957836;28;19919;-51
2022/12/26 13:31:02;;;;;;;;;;;21.80;43.80;;;;;;4933648;29;19957;-51
2022/12/26 13:33:34;;;;;;;;;;;21.80;43.70;;;;;;4938924;28;20337;-51
2022/12/26 13:36:00;;;;;;;;;;;21.70;43.80;;;;;;4947192;28;19922;-52
2022/12/26 13:38:44;;;;;;;;;;;21.60;44.10;;;;;;4958697;28;19925;-51
2022/12/26 13:44:05;;;;;;;;;;;21.30;44.70;;;;;;4950378;28;20381;-51
2022/12/26 13:46:31;;;;;;;;;;;21.30;44.50;;;;;;4952344;28;19933;-51
2022/12/26 13:48:57;;;;;;;;;;;21.40;44.20;;;;;;4950340;28;19915;-51
2022/12/26 13:51:42;;;;;;;;;;;21.60;43.70;;;;;;4966158;28;19920;-51
2022/12/26 13:54:09;;;;;;;;;;;21.70;43.20;;;;;;4952469;28;20381;-51
2022/12/26 13:56:40;;;;;;;;;;;21.60;43.10;;;;;;4934578;28;19915;-53
2022/12/26 13:59:06;;;;;;;;;;;21.50;43.20;;;;;;4997966;28;20383;-53
2022/12/26 14:01:42;;;;;;;;;;;21.30;43.40;;;;;;4979489;28;19922;-51
2022/12/26 14:04:13;;;;;;;;;;;21.10;43.50;;;;;;4917568;29;19934;-51
2022/12/26 14:07:00;;;;;;;;;;;21.00;43.50;;;;;;4933137;28;19931;-52
2022/12/26 14:09:28;;;;;;;;;;;21.10;43.40;;;;;;4931325;29;19914;-52
2022/12/26 14:12:14;;;;;;;;;;;21.40;42.90;;;;;;4932001;29;20052;-53
2022/12/26 14:14:56;;;;;;;;;;;21.50;42.50;;;;;;4932515;29;19922;-53
2022/12/26 14:17:36;;;;;;;;;;;21.70;42.10;;;;;;4949749;29;21278;-52
2022/12/26 14:20:05;;;;;;;;;;;21.90;41.80;;;;;;4934739;29;20298;-53
2022/12/26 14:22:33;;;;;;;;;;;22.00;41.60;;;;;;4951968;29;20379;-53
2022/12/26 14:25:04;;;;;;;;;;;22.00;41.60;;;;;;4951468;29;19961;-52
2022/12/26 14:27:39;;;;;;;;;;;21.90;41.60;;;;;;4951076;28;19997;-52
2022/12/26 14:30:16;;;;;;;;;;;21.70;41.90;;;;;;4950303;28;19922;-52
2022/12/26 14:32:42;;;;;;;;;;;21.70;42.10;;;;;;4951785;28;20359;-53
2022/12/26 14:35:26;;;;;;;;;;;21.70;42.10;;;;;;4951489;28;19918;-53
2022/12/26 14:38:10;;;;;;;;;;;21.80;41.90;;;;;;4951751;29;19919;-53
2022/12/26 14:40:36;;;;;;;;;;;21.90;41.50;;;;;;4951333;29;19922;-52
2022/12/26 14:43:11;;;;;;;;;;;22.00;41.10;;;;;;4951174;28;20294;-52
2022/12/26 14:45:36;;;;;;;;;;;22.00;41.00;;;;;;4951302;28;19918;-51
2022/12/26 14:48:13;;;;;;;;;;;22.10;41.00;;;;;;4951852;28;19918;-52
2022/12/26 14:50:39;;;;;;;;;;;21.90;41.00;;;;;;4951543;29;20429;-52
2022/12/26 14:53:23;;;;;;;;;;;21.80;41.10;;;;;;5037834;28;19908;-53
2022/12/26 14:55:49;;;;;;;;;;;21.80;41.20;;;;;;5021185;28;20041;-52
2022/12/26 14:58:24;;;;;;;;;;;21.70;41.30;;;;;;4951092;29;20286;-51
2022/12/26 15:00:49;;;;;;;;;;;21.60;41.60;;;;;;4951343;28;20013;-52
2022/12/26 15:03:27;;;;;;;;;;;21.50;41.60;;;;;;4951246;29;19997;-51
2022/12/26 15:05:52;;;;;;;;;;;21.60;41.50;;;;;;4951251;28;19968;-52
2022/12/26 15:08:34;;;;;;;;;;;21.70;41.30;;;;;;4950133;29;20346;-52
2022/12/26 15:11:11;;;;;;;;;;;21.80;41.10;;;;;;4949056;28;20021;-51
2022/12/26 15:13:41;;;;;;;;;;;21.80;40.90;;;;;;4951141;28;19918;-51
2022/12/26 15:16:19;;;;;;;;;;;21.80;40.90;;;;;;4934023;28;20001;-52
2022/12/26 15:19:03;;;;;;;;;;;21.90;40.80;;;;;;4951349;29;19910;-52
2022/12/26 15:21:44;;;;;;;;;;;21.70;40.80;;;;;;4951128;29;19915;-52
2022/12/26 15:24:23;;;;;;;;;;;21.60;41.10;;;;;;4951365;29;20378;-52
2022/12/26 15:27:12;;;;;;;;;;;21.30;41.50;;;;;;4949682;28;20028;-53
2022/12/26 15:29:56;;;;;;;;;;;21.20;41.70;;;;;;4968724;28;19952;-52
2022/12/26 15:32:34;;;;;;;;;;;21.30;41.60;;;;;;4951382;28;19911;-53
2022/12/26 15:35:19;;;;;;;;;;;21.40;41.30;;;;;;4935052;28;19911;-52
2022/12/26 15:37:56;;;;;;;;;;;21.50;41.20;;;;;;4950256;28;19946;-51
2022/12/26 15:40:23;;;;;;;;;;;21.60;41.10;;;;;;4963524;28;19950;-51
2022/12/26 15:43:11;;;;;;;;;;;21.70;40.70;;;;;;4950631;29;19915;-51
2022/12/26 15:45:40;;;;;;;;;;;21.80;40.50;;;;;;4949884;28;20016;-53
2022/12/26 15:48:17;;;;;;;;;;;22.00;40.20;;;;;;4960788;28;19914;-52
2022/12/26 15:50:52;;;;;;;;;;;22.00;40.00;;;;;;4970128;28;19914;-53
2022/12/26 15:53:36;;;;;;;;;;;22.10;39.80;;;;;;5047314;28;19963;-52
2022/12/26 15:56:01;;;;;;;;;;;22.10;39.90;;;;;;5050995;28;19928;-52
2022/12/26 15:58:42;;;;;;;;;;;22.20;39.70;;;;;;5031670;28;19915;-51
2022/12/26 16:01:09;;;;;;;;;;;22.20;39.50;;;;;;4972477;28;19914;-52
2022/12/26 16:03:42;;;;;;;;;;;22.20;39.80;;;;;;4972161;28;20457;-53
2022/12/26 16:06:07;;;;;;;;;;;22.10;39.60;;;;;;4971843;28;19930;-51
2022/12/26 16:08:36;;;;;;;;;;;21.90;39.90;;;;;;4973242;28;20278;-52
2022/12/26 16:11:17;;;;;;;;;;;21.70;40.40;;;;;;4971723;28;19932;-53
2022/12/26 16:13:47;;;;;;;;;;;21.70;40.60;;;;;;4958745;28;20032;-51
2022/12/26 16:16:21;;;;;;;;;;;21.70;40.40;;;;;;4951686;28;20342;-51
2022/12/26 16:18:46;;;;;;;;;;;21.70;40.40;;;;;;4958948;28;19914;-51
2022/12/26 16:23:56;;;;;;;;;;;21.80;40.10;;;;;;4953743;29;19937;-52
2022/12/26 16:26:23;;;;;;;;;;;21.90;39.90;;;;;;4953590;28;19910;-51
2022/12/26 16:28:48;;;;;;;;;;;22.00;39.90;;;;;;4953302;28;20386;-51
2022/12/26 16:31:20;;;;;;;;;;;22.00;39.90;;;;;;4953562;28;19925;-52
2022/12/26 16:33:46;;;;;;;;;;;22.10;39.60;;;;;;4953512;29;19960;-51
2022/12/26 16:36:21;;;;;;;;;;;22.20;39.40;;;;;;4953780;28;19914;-52
2022/12/26 16:38:46;;;;;;;;;;;22.00;39.50;;;;;;4936342;29;19950;-52